createdAt,value
2018-09-20T00:01:03.943Z,17.50
2018-09-20T00:03:33.136Z,17.50
2018-09-20T00:06:01.760Z,17.50
2018-09-20T00:08:30.653Z,17.40
2018-09-20T00:10:59.230Z,17.40
2018-09-20T00:13:28.429Z,17.40
2018-09-20T00:15:57.045Z,17.40
2018-09-20T00:18:26.653Z,17.40
2018-09-20T00:20:55.349Z,17.50
2018-09-20T00:23:23.889Z,17.50
2018-09-20T00:25:52.940Z,17.50
2018-09-20T00:28:22.691Z,17.50
2018-09-20T00:30:51.231Z,17.60
2018-09-20T00:33:20.039Z,17.70
2018-09-20T00:35:48.613Z,17.70
2018-09-20T00:38:17.336Z,17.70
2018-09-20T00:40:45.953Z,17.70
2018-09-20T00:43:14.469Z,17.80
2018-09-20T00:45:43.261Z,17.80
2018-09-20T00:48:11.945Z,17.80
2018-09-20T00:50:40.943Z,17.80
2018-09-20T00:53:09.807Z,17.80
2018-09-20T00:55:38.321Z,17.80
2018-09-20T00:58:06.908Z,17.90
2018-09-20T01:00:35.601Z,17.80
2018-09-20T01:03:04.181Z,17.80
2018-09-20T01:05:33.667Z,17.80
2018-09-20T01:08:02.288Z,17.80
2018-09-20T01:10:30.863Z,17.70
2018-09-20T01:12:59.409Z,17.60
2018-09-20T01:15:27.912Z,17.60
2018-09-20T01:17:57.180Z,17.50
2018-09-20T01:20:25.714Z,17.50
2018-09-20T01:22:54.522Z,17.50
2018-09-20T01:25:23.384Z,17.40
2018-09-20T01:27:52.121Z,17.40
2018-09-20T01:30:20.912Z,17.30
2018-09-20T01:32:49.760Z,17.20
2018-09-20T01:35:18.328Z,17.20
2018-09-20T01:37:46.902Z,17.10
2018-09-20T01:40:15.561Z,17.10
2018-09-20T01:42:44.578Z,17.10
2018-09-20T01:45:13.264Z,17.10
2018-09-20T01:47:41.806Z,17.10
2018-09-20T01:50:10.386Z,17.00
2018-09-20T01:52:39.218Z,16.90
2018-09-20T01:55:07.798Z,16.80
2018-09-20T01:57:36.858Z,16.80
2018-09-20T02:00:05.792Z,16.80
2018-09-20T02:02:34.959Z,16.70
2018-09-20T02:05:04.166Z,16.70
2018-09-20T02:07:32.713Z,16.60
2018-09-20T02:10:01.265Z,16.50
2018-09-20T02:12:30.074Z,16.50
2018-09-20T02:14:58.718Z,16.50
2018-09-20T02:17:27.238Z,16.50
2018-09-20T02:19:55.861Z,16.60
2018-09-20T02:22:24.403Z,16.60
2018-09-20T02:24:53.070Z,16.60
2018-09-20T02:27:21.810Z,16.60
2018-09-20T02:29:50.643Z,16.70
2018-09-20T02:32:19.519Z,16.70
2018-09-20T02:34:48.049Z,16.70
2018-09-20T02:37:16.918Z,16.60
2018-09-20T02:39:45.841Z,16.60
2018-09-20T02:42:14.347Z,16.60
2018-09-20T02:44:43.352Z,16.60
2018-09-20T02:47:11.969Z,16.60
2018-09-20T02:49:41.239Z,16.60
2018-09-20T02:52:09.936Z,16.50
2018-09-20T02:54:38.896Z,16.50
2018-09-20T02:57:07.420Z,16.50
2018-09-20T02:59:36.006Z,16.50
2018-09-20T03:02:05.392Z,16.50
2018-09-20T03:04:34.389Z,16.40
2018-09-20T03:07:03.152Z,16.40
2018-09-20T03:09:31.847Z,16.40
2018-09-20T03:12:00.618Z,16.40
2018-09-20T03:14:29.147Z,16.40
2018-09-20T03:16:57.904Z,16.40
2018-09-20T03:19:26.528Z,16.40
2018-09-20T03:21:55.429Z,16.30
2018-09-20T03:24:25.446Z,16.30
2018-09-20T03:26:54.306Z,16.40
2018-09-20T03:29:23.502Z,16.40
2018-09-20T03:31:52.436Z,16.40
2018-09-20T03:34:21.000Z,16.40
2018-09-20T03:36:49.670Z,16.30
2018-09-20T03:39:18.225Z,16.40
2018-09-20T03:41:46.788Z,16.40
2018-09-20T03:44:15.443Z,16.40
2018-09-20T03:46:44.048Z,16.30
2018-09-20T03:49:12.648Z,16.40
2018-09-20T03:51:41.230Z,16.40
2018-09-20T03:54:09.797Z,16.30
2018-09-20T03:56:39.004Z,16.30
2018-09-20T03:59:07.594Z,16.30
2018-09-20T04:01:36.436Z,16.20
2018-09-20T04:04:05.620Z,16.20
2018-09-20T04:06:34.383Z,16.20
2018-09-20T04:09:03.157Z,16.20
2018-09-20T04:11:31.714Z,16.10
2018-09-20T04:14:00.242Z,16.20
2018-09-20T04:16:28.983Z,16.10
2018-09-20T04:18:57.607Z,16.10
2018-09-20T04:21:31.505Z,16.10
2018-09-20T04:24:01.007Z,16.10
2018-09-20T04:26:30.461Z,16.10
2018-09-20T04:28:59.796Z,16.10
2018-09-20T04:31:29.401Z,16.10
2018-09-20T04:33:59.215Z,16.10
2018-09-20T04:36:27.987Z,16.10
2018-09-20T04:38:57.134Z,16.10
2018-09-20T04:41:25.637Z,16.10
2018-09-20T04:43:54.948Z,16.10
2018-09-20T04:46:23.501Z,16.10
2018-09-20T04:48:52.187Z,16.10
2018-09-20T04:51:20.740Z,16.10
2018-09-20T04:53:49.668Z,16.10
2018-09-20T04:56:18.586Z,16.10
2018-09-20T04:58:47.251Z,16.10
2018-09-20T05:01:15.992Z,16.10
2018-09-20T05:03:45.206Z,16.10
2018-09-20T05:06:13.810Z,16.10
2018-09-20T05:08:42.348Z,16.10
2018-09-20T05:11:11.104Z,16.10
2018-09-20T05:13:40.574Z,16.10
2018-09-20T05:16:09.762Z,16.10
2018-09-20T05:18:38.320Z,16.00
2018-09-20T05:21:07.286Z,16.00
2018-09-20T05:23:36.063Z,16.00
2018-09-20T05:26:04.609Z,16.00
2018-09-20T05:28:33.118Z,16.00
2018-09-20T05:31:01.855Z,16.00
2018-09-20T05:33:30.499Z,16.00
2018-09-20T05:35:59.529Z,16.00
2018-09-20T05:38:28.210Z,15.90
2018-09-20T05:40:57.887Z,15.90
2018-09-20T05:43:27.226Z,15.90
2018-09-20T05:45:55.810Z,15.90
2018-09-20T05:48:24.372Z,15.90
2018-09-20T05:50:53.226Z,15.90
2018-09-20T05:53:22.346Z,15.90
2018-09-20T05:55:50.923Z,15.90
2018-09-20T05:58:19.547Z,15.90
2018-09-20T06:00:48.821Z,16.00
2018-09-20T06:03:17.505Z,15.90
2018-09-20T06:05:46.581Z,16.00
2018-09-20T06:08:15.539Z,16.00
2018-09-20T06:10:44.677Z,16.00
2018-09-20T06:13:13.536Z,16.00
2018-09-20T06:15:42.415Z,16.00
2018-09-20T06:18:11.301Z,16.00
2018-09-20T06:20:40.460Z,16.10
2018-09-20T06:23:09.433Z,16.10
2018-09-20T06:25:38.558Z,16.10
2018-09-20T06:28:07.317Z,16.20
2018-09-20T06:30:36.787Z,16.30
2018-09-20T06:33:05.845Z,16.30
2018-09-20T06:35:35.101Z,16.30
2018-09-20T06:38:04.045Z,16.30
2018-09-20T06:40:32.674Z,16.40
2018-09-20T06:43:01.652Z,16.50
2018-09-20T06:45:30.202Z,16.50
2018-09-20T06:47:59.253Z,16.50
2018-09-20T06:50:27.854Z,16.60
2018-09-20T06:52:56.394Z,16.70
2018-09-20T06:55:25.006Z,16.70
2018-09-20T06:57:53.864Z,16.80
2018-09-20T07:00:22.638Z,16.80
2018-09-20T07:02:51.342Z,16.90
2018-09-20T07:05:20.083Z,16.90
2018-09-20T07:07:49.193Z,17.00
2018-09-20T07:10:17.923Z,17.10
2018-09-20T07:12:46.547Z,17.20
2018-09-20T07:15:15.339Z,17.20
2018-09-20T07:17:43.968Z,17.30
2018-09-20T07:20:12.583Z,17.30
2018-09-20T07:22:41.162Z,17.40
2018-09-20T07:25:09.919Z,17.40
2018-09-20T07:27:38.669Z,17.50
2018-09-20T07:30:07.517Z,17.50
2018-09-20T07:32:36.482Z,17.60
2018-09-20T07:35:05.377Z,17.60
2018-09-20T07:37:34.269Z,17.70
2018-09-20T07:40:03.349Z,17.70
2018-09-20T07:42:32.015Z,17.70
2018-09-20T07:45:01.642Z,17.80
2018-09-20T07:47:31.090Z,17.90
2018-09-20T07:50:00.897Z,18.00
2018-09-20T07:52:29.509Z,18.20
2018-09-20T07:54:59.345Z,18.30
2018-09-20T07:57:30.125Z,18.40
2018-09-20T08:00:00.588Z,18.50
2018-09-20T08:02:29.381Z,18.50
2018-09-20T08:04:58.511Z,18.70
2018-09-20T08:07:27.499Z,18.70
2018-09-20T08:09:57.403Z,18.70
2018-09-20T08:12:25.966Z,18.70
2018-09-20T08:14:54.578Z,18.70
2018-09-20T08:17:23.851Z,18.70
2018-09-20T08:19:52.453Z,18.70
2018-09-20T08:22:21.446Z,18.80
2018-09-20T08:24:50.608Z,18.90
2018-09-20T08:27:19.145Z,18.90
2018-09-20T08:29:47.700Z,19.10
2018-09-20T08:32:16.970Z,19.10
2018-09-20T08:34:45.974Z,19.10
2018-09-20T08:37:15.309Z,19.20
2018-09-20T08:39:43.940Z,19.20
2018-09-20T08:42:12.642Z,19.30
2018-09-20T08:44:42.184Z,19.40
2018-09-20T08:47:10.764Z,19.30
2018-09-20T08:49:39.993Z,19.30
2018-09-20T08:52:08.830Z,19.30
2018-09-20T08:54:37.510Z,19.30
2018-09-20T08:57:06.543Z,19.40
2018-09-20T08:59:36.411Z,19.50
2018-09-20T09:02:05.103Z,19.50
2018-09-20T09:04:33.725Z,19.50
2018-09-20T09:07:03.216Z,19.50
2018-09-20T09:09:32.045Z,19.60
2018-09-20T09:12:01.071Z,19.60
2018-09-20T09:14:29.626Z,19.60
2018-09-20T09:16:58.392Z,19.70
2018-09-20T09:19:27.340Z,19.70
2018-09-20T09:21:56.669Z,19.70
2018-09-20T09:24:25.795Z,19.80
2018-09-20T09:26:54.947Z,19.90
2018-09-20T09:29:23.709Z,19.90
2018-09-20T09:31:52.655Z,20.00
2018-09-20T09:34:21.497Z,20.10
2018-09-20T09:36:50.267Z,20.20
2018-09-20T09:39:19.496Z,20.10
2018-09-20T09:41:48.934Z,20.10
2018-09-20T09:44:17.641Z,20.00
2018-09-20T09:46:46.595Z,20.00
2018-09-20T09:49:15.609Z,20.00
2018-09-20T09:51:44.839Z,20.00
2018-09-20T09:54:14.301Z,20.00
2018-09-20T09:56:42.855Z,20.10
2018-09-20T09:59:12.790Z,20.10
2018-09-20T10:01:42.576Z,20.30
2018-09-20T10:04:13.542Z,20.40
2018-09-20T10:06:42.225Z,20.50
2018-09-20T10:09:11.876Z,20.60
2018-09-20T10:11:40.879Z,20.60
2018-09-20T10:14:10.077Z,20.60
2018-09-20T10:16:39.121Z,20.60
2018-09-20T10:19:07.946Z,20.60
2018-09-20T10:21:36.768Z,20.50
2018-09-20T10:24:05.622Z,20.50
2018-09-20T10:26:34.454Z,20.60
2018-09-20T10:29:03.320Z,20.70
2018-09-20T10:31:33.055Z,20.80
2018-09-20T10:34:03.011Z,20.90
2018-09-20T10:36:33.222Z,21.00
2018-09-20T10:39:04.878Z,21.20
2018-09-20T10:41:34.995Z,21.30
2018-09-20T10:44:04.865Z,21.50
2018-09-20T10:46:34.062Z,21.50
2018-09-20T10:49:02.792Z,21.60
2018-09-20T10:51:32.776Z,21.60
2018-09-20T10:54:01.688Z,21.60
2018-09-20T10:56:30.278Z,21.70
2018-09-20T10:58:59.650Z,21.80
2018-09-20T11:01:28.243Z,21.80
2018-09-20T11:03:57.065Z,21.80
2018-09-20T11:06:25.751Z,21.70
2018-09-20T11:08:55.047Z,21.80
2018-09-20T11:11:25.147Z,21.80
2018-09-20T11:13:55.876Z,21.90
2018-09-20T11:16:25.069Z,22.10
2018-09-20T11:18:56.001Z,22.10
2018-09-20T11:21:24.799Z,22.40
2018-09-20T11:23:53.733Z,22.50
2018-09-20T11:26:22.793Z,22.50
2018-09-20T11:28:51.767Z,22.70
2018-09-20T11:31:24.223Z,22.70
2018-09-20T11:33:52.818Z,22.80
2018-09-20T11:36:22.045Z,22.90
2018-09-20T11:38:51.272Z,23.10
2018-09-20T11:41:20.213Z,23.20
2018-09-20T11:43:49.898Z,23.20
2018-09-20T11:46:18.558Z,23.20
2018-09-20T11:48:47.853Z,23.20
2018-09-20T11:51:16.772Z,23.10
2018-09-20T11:53:45.732Z,23.20
2018-09-20T11:56:14.552Z,23.20
2018-09-20T11:58:43.851Z,23.20
2018-09-20T12:01:13.080Z,23.40
2018-09-20T12:03:41.992Z,23.40
2018-09-20T12:06:10.699Z,23.50
2018-09-20T12:08:39.358Z,23.60
2018-09-20T12:11:08.200Z,23.50
2018-09-20T12:14:19.527Z,23.60
2018-09-20T12:16:49.258Z,23.70
2018-09-20T12:19:19.258Z,23.90
2018-09-20T12:21:49.622Z,23.90
2018-09-20T12:24:19.766Z,23.90
2018-09-20T12:26:52.330Z,23.90
2018-09-20T12:29:21.206Z,24.00
2018-09-20T12:31:50.129Z,24.10
2018-09-20T12:34:19.182Z,24.00
2018-09-20T12:36:49.058Z,24.00
2018-09-20T12:39:17.758Z,24.00
2018-09-20T12:41:47.040Z,24.20
2018-09-20T12:44:16.403Z,24.30
2018-09-20T12:46:47.668Z,24.40
2018-09-20T12:49:17.450Z,24.50
2018-09-20T12:51:46.180Z,24.60
2018-09-20T12:54:14.822Z,24.60
2018-09-20T12:56:43.448Z,24.70
2018-09-20T12:59:12.070Z,24.70
2018-09-20T13:01:41.171Z,24.80
2018-09-20T13:04:09.752Z,24.80
2018-09-20T13:06:38.431Z,24.60
2018-09-20T13:09:08.911Z,24.50
2018-09-20T13:11:37.489Z,24.50
2018-09-20T13:14:06.131Z,24.50
2018-09-20T13:16:34.707Z,24.50
2018-09-20T13:19:03.775Z,24.50
2018-09-20T13:21:32.403Z,24.60
2018-09-20T13:24:01.209Z,24.70
2018-09-20T13:26:29.815Z,24.80
2018-09-20T13:28:58.498Z,24.90
2018-09-20T13:31:27.159Z,24.90
2018-09-20T13:33:55.703Z,24.80
2018-09-20T13:36:24.298Z,24.70
2018-09-20T13:38:52.858Z,24.70
2018-09-20T13:41:21.931Z,24.80
2018-09-20T13:43:50.472Z,24.90
2018-09-20T13:46:19.389Z,24.90
2018-09-20T13:48:48.401Z,24.90
2018-09-20T13:51:17.798Z,24.80
2018-09-20T13:53:46.361Z,24.80
2018-09-20T13:56:15.253Z,24.80
2018-09-20T13:58:47.454Z,24.80
2018-09-20T14:01:17.031Z,24.80
2018-09-20T14:03:46.356Z,24.90
2018-09-20T14:06:15.359Z,25.10
2018-09-20T14:08:44.623Z,25.20
2018-09-20T14:11:13.948Z,25.40
2018-09-20T14:13:42.465Z,25.70
2018-09-20T14:16:11.212Z,25.80
2018-09-20T14:18:40.051Z,25.80
2018-09-20T14:21:09.159Z,25.70
2018-09-20T14:23:37.796Z,25.60
2018-09-20T14:26:07.878Z,25.40
2018-09-20T14:28:36.434Z,25.40
2018-09-20T14:31:06.301Z,25.30
2018-09-20T14:33:35.469Z,25.20
2018-09-20T14:36:05.124Z,25.20
2018-09-20T14:38:33.732Z,25.30
2018-09-20T14:41:02.603Z,25.40
2018-09-20T14:43:31.131Z,25.30
2018-09-20T14:46:00.378Z,25.30
2018-09-20T14:48:29.141Z,25.30
2018-09-20T14:50:57.862Z,25.30
2018-09-20T14:53:27.112Z,25.30
2018-09-20T14:55:57.825Z,25.30
2018-09-20T14:58:34.671Z,25.30
2018-09-20T15:01:07.627Z,25.30
2018-09-20T15:03:36.598Z,25.40
2018-09-20T15:06:05.576Z,25.50
2018-09-20T15:08:34.389Z,25.60
2018-09-20T15:11:03.284Z,25.90
2018-09-20T15:13:31.856Z,26.10
2018-09-20T15:16:00.558Z,26.30
2018-09-20T15:18:29.404Z,26.30
2018-09-20T15:20:58.328Z,26.20
2018-09-20T15:23:26.933Z,26.00
2018-09-20T15:25:55.794Z,25.80
2018-09-20T15:28:24.422Z,25.70
2018-09-20T15:30:52.950Z,25.50
2018-09-20T15:33:21.487Z,25.40
2018-09-20T15:35:50.774Z,25.30
2018-09-20T15:38:19.389Z,25.20
2018-09-20T15:40:48.132Z,25.10
2018-09-20T15:43:16.882Z,25.20
2018-09-20T15:45:45.572Z,25.10
2018-09-20T15:48:14.150Z,25.10
2018-09-20T15:57:27.510Z,25.20
2018-09-20T15:59:56.134Z,25.80
2018-09-20T16:02:25.004Z,26.00
2018-09-20T16:04:53.853Z,26.30
2018-09-20T16:07:22.994Z,26.60
2018-09-20T16:13:06.272Z,26.40
2018-09-20T16:15:34.973Z,26.00
2018-09-20T16:18:12.209Z,25.70
2018-09-20T16:20:51.447Z,25.50
2018-09-20T16:23:38.747Z,25.20
2018-09-20T16:26:09.653Z,25.00
2018-09-20T16:29:01.870Z,24.90
2018-09-20T16:40:22.997Z,24.70
2018-09-20T16:42:52.025Z,24.70
2018-09-20T16:45:20.872Z,24.40
2018-09-20T16:47:49.373Z,24.40
2018-09-20T16:50:17.947Z,24.30
2018-09-20T16:52:46.657Z,24.30
2018-09-20T16:55:15.758Z,24.30
2018-09-20T16:57:46.744Z,24.20
2018-09-20T17:00:15.377Z,24.10
2018-09-20T17:02:44.025Z,24.10
2018-09-20T17:05:12.656Z,24.10
2018-09-20T17:07:41.375Z,24.00
2018-09-20T17:10:10.638Z,24.00
2018-09-20T17:12:39.339Z,23.90
2018-09-20T17:15:08.101Z,23.90
2018-09-20T17:17:37.087Z,23.90
2018-09-20T17:20:05.738Z,23.90
2018-09-20T17:22:34.778Z,23.80
2018-09-20T17:25:03.384Z,23.80
2018-09-20T17:27:32.075Z,23.70
2018-09-20T17:30:01.098Z,23.60
2018-09-20T17:32:29.932Z,23.60
2018-09-20T17:34:59.398Z,23.50
2018-09-20T17:37:30.028Z,23.40
2018-09-20T17:40:00.781Z,23.30
2018-09-20T17:42:30.084Z,23.20
2018-09-20T17:44:58.866Z,23.20
2018-09-20T17:47:27.463Z,23.10
2018-09-20T17:49:55.996Z,23.00
2018-09-20T17:52:25.296Z,23.00
2018-09-20T17:54:55.372Z,23.00
2018-09-20T17:57:24.953Z,23.00
2018-09-20T17:59:57.620Z,22.90
2018-09-20T18:02:26.242Z,22.90
2018-09-20T18:04:54.741Z,22.80
2018-09-20T18:07:23.304Z,22.80
2018-09-20T18:09:52.024Z,22.70
2018-09-20T18:12:20.709Z,22.70
2018-09-20T18:14:50.122Z,22.70
2018-09-20T18:17:18.874Z,22.60
2018-09-20T18:19:47.688Z,22.60
2018-09-20T18:22:16.260Z,22.50
2018-09-20T18:24:44.748Z,22.50
2018-09-20T18:27:14.112Z,22.40
2018-09-20T18:29:43.100Z,22.40
2018-09-20T18:32:11.721Z,22.30
2018-09-20T18:34:40.726Z,22.30
2018-09-20T18:37:09.431Z,22.30
2018-09-20T18:39:38.125Z,22.20
2018-09-20T18:42:06.823Z,22.10
2018-09-20T18:46:13.314Z,22.10
2018-09-20T18:48:42.334Z,22.00
2018-09-20T18:51:10.864Z,22.00
2018-09-20T18:53:39.432Z,21.90
2018-09-20T18:56:08.152Z,21.80
2018-09-20T18:58:36.899Z,21.80
2018-09-20T19:01:06.003Z,21.70
2018-09-20T19:03:35.839Z,21.70
2018-09-20T19:06:04.813Z,21.60
2018-09-20T19:08:33.491Z,21.60
2018-09-20T19:11:02.240Z,21.50
2018-09-20T19:13:30.857Z,21.50
2018-09-20T19:15:59.900Z,21.40
2018-09-20T19:18:28.419Z,21.50
2018-09-20T19:20:57.055Z,21.40
2018-09-20T19:23:25.913Z,21.40
2018-09-20T19:25:54.422Z,21.40
2018-09-20T19:28:22.973Z,21.30
2018-09-20T19:30:51.495Z,21.30
2018-09-20T19:33:20.013Z,21.30
2018-09-20T19:35:48.526Z,21.20
2018-09-20T19:38:17.052Z,21.20
2018-09-20T19:40:45.594Z,21.10
2018-09-20T19:43:14.118Z,21.10
2018-09-20T19:47:12.702Z,21.10
2018-09-20T19:49:41.222Z,21.10
2018-09-20T19:52:09.769Z,21.10
2018-09-20T19:54:38.414Z,21.00
2018-09-20T19:57:06.900Z,21.00
2018-09-20T19:59:35.472Z,21.00
2018-09-20T20:02:04.042Z,21.00
2018-09-20T20:04:33.056Z,21.00
2018-09-20T20:07:01.799Z,21.00
2018-09-20T20:09:30.445Z,21.00
2018-09-20T20:11:58.965Z,20.90
2018-09-20T20:14:27.797Z,21.00
2018-09-20T20:16:56.353Z,21.00
2018-09-20T20:19:25.023Z,21.00
2018-09-20T20:21:53.837Z,21.00
2018-09-20T20:24:22.548Z,21.00
2018-09-20T20:26:51.093Z,21.00
2018-09-20T20:29:19.607Z,20.90
2018-09-20T20:31:48.456Z,21.00
2018-09-20T20:34:16.993Z,21.00
2018-09-20T20:36:45.493Z,20.90
2018-09-20T20:39:14.026Z,20.90
2018-09-20T20:41:42.785Z,21.00
2018-09-20T20:44:16.201Z,20.90
2018-09-20T20:46:44.949Z,21.00
2018-09-20T20:49:13.457Z,21.00
2018-09-20T20:51:41.976Z,20.90
2018-09-20T20:54:10.489Z,20.90
2018-09-20T20:56:39.051Z,21.00
2018-09-20T20:59:07.908Z,20.90
2018-09-20T21:01:36.410Z,21.00
2018-09-20T21:04:04.978Z,20.90
2018-09-20T21:06:33.623Z,21.00
2018-09-20T21:09:02.280Z,21.00
2018-09-20T21:11:31.701Z,21.00
2018-09-20T21:14:01.625Z,20.90
2018-09-20T21:16:30.404Z,20.90
2018-09-20T21:19:00.337Z,20.90
2018-09-20T21:21:28.820Z,20.90
2018-09-20T21:23:57.323Z,20.80
2018-09-20T21:26:25.867Z,20.80
2018-09-20T21:28:54.586Z,20.80
2018-09-20T21:31:23.191Z,20.80
2018-09-20T21:33:51.902Z,20.80
2018-09-20T21:36:20.451Z,20.80
2018-09-20T21:38:49.944Z,20.70
2018-09-20T21:41:18.867Z,20.70
2018-09-20T21:43:47.422Z,20.60
2018-09-20T21:46:16.253Z,20.60
2018-09-20T21:48:44.926Z,20.60
2018-09-20T21:51:18.778Z,20.60
2018-09-20T21:53:48.893Z,20.60
2018-09-20T21:56:17.442Z,20.60
2018-09-20T21:58:46.649Z,20.60
2018-09-20T22:01:15.171Z,20.60
2018-09-20T22:03:43.692Z,20.60
2018-09-20T22:06:12.738Z,20.60
2018-09-20T22:08:41.508Z,20.60
2018-09-20T22:11:10.176Z,20.60
2018-09-20T22:13:38.703Z,20.50
2018-09-20T22:16:07.242Z,20.50
2018-09-20T22:18:36.064Z,20.50
2018-09-20T22:21:04.902Z,20.40
2018-09-20T22:23:33.428Z,20.40
2018-09-20T22:26:02.155Z,20.40
2018-09-20T22:28:30.972Z,20.40
2018-09-20T22:30:59.666Z,20.30
2018-09-20T22:33:28.230Z,20.30
2018-09-20T22:35:57.216Z,20.30
2018-09-20T22:38:27.130Z,20.30
2018-09-20T22:40:55.828Z,20.30
2018-09-20T22:43:24.392Z,20.30
2018-09-20T22:45:53.010Z,20.30
2018-09-20T22:48:21.571Z,20.20
2018-09-20T22:52:19.677Z,20.20
2018-09-20T22:54:48.214Z,20.20
2018-09-20T22:57:16.834Z,20.20
2018-09-20T22:59:45.676Z,20.10
2018-09-20T23:02:14.850Z,20.10
2018-09-20T23:04:43.825Z,20.10
2018-09-20T23:07:12.716Z,20.10
2018-09-20T23:09:42.666Z,20.10
2018-09-20T23:12:11.297Z,20.10
2018-09-20T23:14:39.855Z,20.10
2018-09-20T23:17:08.519Z,20.10
2018-09-20T23:19:37.642Z,20.10
2018-09-20T23:22:06.241Z,20.00
2018-09-20T23:24:35.163Z,20.00
2018-09-20T23:27:03.942Z,20.00
2018-09-20T23:29:32.509Z,19.90
2018-09-20T23:32:01.217Z,19.90
2018-09-20T23:34:29.821Z,19.90
2018-09-20T23:36:58.356Z,19.90
2018-09-20T23:39:26.919Z,19.90
2018-09-20T23:41:55.661Z,19.80
2018-09-20T23:44:24.338Z,19.90
2018-09-20T23:46:52.886Z,19.90
2018-09-20T23:49:21.440Z,19.80
2018-09-20T23:51:49.990Z,19.90
2018-09-20T23:54:18.524Z,19.80
2018-09-20T23:56:47.046Z,19.80
2018-09-20T23:59:16.206Z,19.90
